sensor_id;sensor_type;location;lat;lon;timestamp;P1;durP1;ratioP1;P2;durP2;ratioP2
51724;SDS011;37801;53.224;6.552;2023-06-14T00:01:28;3.55;;;1.48;;
51724;SDS011;37801;53.224;6.552;2023-06-14T00:03:54;4.10;;;1.38;;
51724;SDS011;37801;53.224;6.552;2023-06-14T00:06:20;4.60;;;1.33;;
51724;SDS011;37801;53.224;6.552;2023-06-14T00:08:46;7.35;;;1.38;;
51724;SDS011;37801;53.224;6.552;2023-06-14T00:11:12;3.95;;;1.48;;
51724;SDS011;37801;53.224;6.552;2023-06-14T00:13:39;3.72;;;1.60;;
51724;SDS011;37801;53.224;6.552;2023-06-14T00:16:06;9.35;;;1.67;;
51724;SDS011;37801;53.224;6.552;2023-06-14T00:18:33;3.60;;;1.75;;
51724;SDS011;37801;53.224;6.552;2023-06-14T00:20:59;3.55;;;1.38;;
51724;SDS011;37801;53.224;6.552;2023-06-14T00:23:27;2.53;;;1.38;;
51724;SDS011;37801;53.224;6.552;2023-06-14T00:25:53;4.38;;;1.60;;
51724;SDS011;37801;53.224;6.552;2023-06-14T00:28:19;4.35;;;1.50;;
51724;SDS011;37801;53.224;6.552;2023-06-14T00:30:45;3.47;;;1.30;;
51724;SDS011;37801;53.224;6.552;2023-06-14T00:33:12;4.68;;;1.30;;
51724;SDS011;37801;53.224;6.552;2023-06-14T00:35:38;2.20;;;1.27;;
51724;SDS011;37801;53.224;6.552;2023-06-14T00:38:04;3.70;;;1.38;;
51724;SDS011;37801;53.224;6.552;2023-06-14T00:40:30;2.83;;;1.48;;
51724;SDS011;37801;53.224;6.552;2023-06-14T00:42:56;3.38;;;1.27;;
51724;SDS011;37801;53.224;6.552;2023-06-14T00:45:22;5.43;;;1.33;;
51724;SDS011;37801;53.224;6.552;2023-06-14T00:47:49;5.25;;;1.30;;
51724;SDS011;37801;53.224;6.552;2023-06-14T00:50:17;4.28;;;1.50;;
51724;SDS011;37801;53.224;6.552;2023-06-14T00:52:45;2.10;;;1.25;;
51724;SDS011;37801;53.224;6.552;2023-06-14T00:55:11;3.55;;;1.23;;
51724;SDS011;37801;53.224;6.552;2023-06-14T00:57:38;2.35;;;1.30;;
51724;SDS011;37801;53.224;6.552;2023-06-14T01:00:05;4.80;;;1.25;;
51724;SDS011;37801;53.224;6.552;2023-06-14T01:02:38;4.82;;;1.30;;
51724;SDS011;37801;53.224;6.552;2023-06-14T01:05:05;2.92;;;1.20;;
51724;SDS011;37801;53.224;6.552;2023-06-14T01:10:22;2.13;;;1.10;;
51724;SDS011;37801;53.224;6.552;2023-06-14T01:12:58;2.47;;;1.30;;
51724;SDS011;37801;53.224;6.552;2023-06-14T01:15:29;4.82;;;1.48;;
51724;SDS011;37801;53.224;6.552;2023-06-14T01:17:56;2.28;;;1.13;;
51724;SDS011;37801;53.224;6.552;2023-06-14T01:20:31;4.03;;;1.38;;
51724;SDS011;37801;53.224;6.552;2023-06-14T01:22:58;2.85;;;1.30;;
51724;SDS011;37801;53.224;6.552;2023-06-14T01:25:24;2.38;;;1.02;;
51724;SDS011;37801;53.224;6.552;2023-06-14T01:28:01;4.13;;;1.35;;
51724;SDS011;37801;53.224;6.552;2023-06-14T01:30:29;2.70;;;1.25;;
51724;SDS011;37801;53.224;6.552;2023-06-14T01:32:55;3.00;;;1.27;;
51724;SDS011;37801;53.224;6.552;2023-06-14T01:35:22;2.70;;;1.33;;
51724;SDS011;37801;53.224;6.552;2023-06-14T01:37:48;2.80;;;1.00;;
51724;SDS011;37801;53.224;6.552;2023-06-14T01:40:15;2.05;;;1.38;;
51724;SDS011;37801;53.224;6.552;2023-06-14T01:42:41;2.80;;;1.40;;
51724;SDS011;37801;53.224;6.552;2023-06-14T01:45:08;4.20;;;1.30;;
51724;SDS011;37801;53.224;6.552;2023-06-14T01:47:35;2.25;;;1.17;;
51724;SDS011;37801;53.224;6.552;2023-06-14T01:50:02;6.07;;;1.27;;
51724;SDS011;37801;53.224;6.552;2023-06-14T01:52:29;2.65;;;1.42;;
51724;SDS011;37801;53.224;6.552;2023-06-14T01:54:55;4.50;;;1.20;;
51724;SDS011;37801;53.224;6.552;2023-06-14T01:57:23;3.20;;;1.30;;
51724;SDS011;37801;53.224;6.552;2023-06-14T01:59:49;3.00;;;1.30;;
51724;SDS011;37801;53.224;6.552;2023-06-14T02:02:15;2.00;;;1.10;;
51724;SDS011;37801;53.224;6.552;2023-06-14T02:04:42;4.00;;;1.65;;
51724;SDS011;37801;53.224;6.552;2023-06-14T02:07:08;3.80;;;1.30;;
51724;SDS011;37801;53.224;6.552;2023-06-14T02:09:34;2.72;;;1.48;;
51724;SDS011;37801;53.224;6.552;2023-06-14T02:12:01;2.65;;;1.50;;
51724;SDS011;37801;53.224;6.552;2023-06-14T02:14:27;2.45;;;1.33;;
51724;SDS011;37801;53.224;6.552;2023-06-14T02:16:53;2.53;;;1.48;;
51724;SDS011;37801;53.224;6.552;2023-06-14T02:19:20;3.80;;;1.40;;
51724;SDS011;37801;53.224;6.552;2023-06-14T02:21:49;2.78;;;1.30;;
51724;SDS011;37801;53.224;6.552;2023-06-14T02:24:15;4.40;;;1.67;;
51724;SDS011;37801;53.224;6.552;2023-06-14T02:26:41;2.58;;;1.40;;
51724;SDS011;37801;53.224;6.552;2023-06-14T02:29:07;2.65;;;1.40;;
51724;SDS011;37801;53.224;6.552;2023-06-14T02:31:35;3.00;;;1.52;;
51724;SDS011;37801;53.224;6.552;2023-06-14T02:34:01;3.47;;;1.55;;
51724;SDS011;37801;53.224;6.552;2023-06-14T02:36:28;4.57;;;1.60;;
51724;SDS011;37801;53.224;6.552;2023-06-14T02:38:57;4.90;;;1.45;;
51724;SDS011;37801;53.224;6.552;2023-06-14T02:41:24;4.28;;;1.48;;
51724;SDS011;37801;53.224;6.552;2023-06-14T02:43:51;5.03;;;1.90;;
51724;SDS011;37801;53.224;6.552;2023-06-14T02:46:17;3.15;;;1.60;;
51724;SDS011;37801;53.224;6.552;2023-06-14T02:48:43;3.30;;;1.35;;
51724;SDS011;37801;53.224;6.552;2023-06-14T02:51:09;3.25;;;1.70;;
51724;SDS011;37801;53.224;6.552;2023-06-14T02:53:35;4.95;;;1.80;;
51724;SDS011;37801;53.224;6.552;2023-06-14T02:56:02;2.70;;;1.67;;
51724;SDS011;37801;53.224;6.552;2023-06-14T02:58:31;4.30;;;1.35;;
51724;SDS011;37801;53.224;6.552;2023-06-14T03:00:58;4.45;;;2.05;;
51724;SDS011;37801;53.224;6.552;2023-06-14T03:03:28;3.22;;;1.60;;
51724;SDS011;37801;53.224;6.552;2023-06-14T03:05:55;4.10;;;1.55;;
51724;SDS011;37801;53.224;6.552;2023-06-14T03:08:21;3.08;;;1.60;;
51724;SDS011;37801;53.224;6.552;2023-06-14T03:10:52;5.68;;;1.60;;
51724;SDS011;37801;53.224;6.552;2023-06-14T03:13:18;5.75;;;1.88;;
51724;SDS011;37801;53.224;6.552;2023-06-14T03:15:47;2.47;;;1.60;;
51724;SDS011;37801;53.224;6.552;2023-06-14T03:18:16;4.78;;;1.80;;
51724;SDS011;37801;53.224;6.552;2023-06-14T03:20:42;3.08;;;1.60;;
51724;SDS011;37801;53.224;6.552;2023-06-14T03:23:10;3.42;;;1.65;;
51724;SDS011;37801;53.224;6.552;2023-06-14T03:25:36;4.38;;;1.88;;
51724;SDS011;37801;53.224;6.552;2023-06-14T03:28:04;4.13;;;1.73;;
51724;SDS011;37801;53.224;6.552;2023-06-14T03:30:31;6.15;;;1.88;;
51724;SDS011;37801;53.224;6.552;2023-06-14T03:32:57;3.67;;;1.77;;
51724;SDS011;37801;53.224;6.552;2023-06-14T03:35:26;4.93;;;1.50;;
51724;SDS011;37801;53.224;6.552;2023-06-14T03:37:52;3.55;;;1.85;;
51724;SDS011;37801;53.224;6.552;2023-06-14T03:40:19;6.35;;;2.20;;
51724;SDS011;37801;53.224;6.552;2023-06-14T03:42:45;5.28;;;2.20;;
51724;SDS011;37801;53.224;6.552;2023-06-14T03:45:12;6.25;;;2.13;;
51724;SDS011;37801;53.224;6.552;2023-06-14T03:47:38;3.70;;;1.80;;
51724;SDS011;37801;53.224;6.552;2023-06-14T03:50:05;4.05;;;1.90;;
51724;SDS011;37801;53.224;6.552;2023-06-14T03:52:31;6.75;;;2.05;;
51724;SDS011;37801;53.224;6.552;2023-06-14T03:54:58;6.03;;;1.83;;
51724;SDS011;37801;53.224;6.552;2023-06-14T03:57:25;6.97;;;2.33;;
51724;SDS011;37801;53.224;6.552;2023-06-14T03:59:51;4.68;;;1.85;;
51724;SDS011;37801;53.224;6.552;2023-06-14T04:02:18;3.40;;;1.75;;
51724;SDS011;37801;53.224;6.552;2023-06-14T04:04:44;6.03;;;2.28;;
51724;SDS011;37801;53.224;6.552;2023-06-14T04:07:11;4.47;;;1.85;;
51724;SDS011;37801;53.224;6.552;2023-06-14T04:09:38;4.03;;;1.75;;
51724;SDS011;37801;53.224;6.552;2023-06-14T04:12:04;4.10;;;1.67;;
51724;SDS011;37801;53.224;6.552;2023-06-14T04:14:31;4.32;;;2.10;;
51724;SDS011;37801;53.224;6.552;2023-06-14T04:17:00;5.05;;;2.20;;
51724;SDS011;37801;53.224;6.552;2023-06-14T04:19:26;3.13;;;1.80;;
51724;SDS011;37801;53.224;6.552;2023-06-14T04:21:52;4.38;;;2.00;;
51724;SDS011;37801;53.224;6.552;2023-06-14T04:24:19;4.38;;;2.13;;
51724;SDS011;37801;53.224;6.552;2023-06-14T04:26:45;4.97;;;2.00;;
51724;SDS011;37801;53.224;6.552;2023-06-14T04:29:13;4.63;;;2.53;;
51724;SDS011;37801;53.224;6.552;2023-06-14T04:31:44;6.22;;;1.70;;
51724;SDS011;37801;53.224;6.552;2023-06-14T04:34:10;5.72;;;2.15;;
51724;SDS011;37801;53.224;6.552;2023-06-14T04:36:41;5.53;;;2.22;;
51724;SDS011;37801;53.224;6.552;2023-06-14T04:39:08;4.25;;;2.00;;
51724;SDS011;37801;53.224;6.552;2023-06-14T04:41:34;5.38;;;1.95;;
51724;SDS011;37801;53.224;6.552;2023-06-14T04:44:00;3.55;;;1.90;;
51724;SDS011;37801;53.224;6.552;2023-06-14T04:46:30;3.10;;;2.00;;
51724;SDS011;37801;53.224;6.552;2023-06-14T04:49:11;2.88;;;1.80;;
51724;SDS011;37801;53.224;6.552;2023-06-14T04:51:40;3.72;;;2.15;;
51724;SDS011;37801;53.224;6.552;2023-06-14T04:54:08;2.60;;;1.50;;
51724;SDS011;37801;53.224;6.552;2023-06-14T04:56:43;4.88;;;2.38;;
51724;SDS011;37801;53.224;6.552;2023-06-14T04:59:11;4.78;;;2.40;;
51724;SDS011;37801;53.224;6.552;2023-06-14T05:01:37;6.85;;;1.98;;
51724;SDS011;37801;53.224;6.552;2023-06-14T05:04:04;3.03;;;2.00;;
51724;SDS011;37801;53.224;6.552;2023-06-14T05:06:30;6.90;;;2.30;;
51724;SDS011;37801;53.224;6.552;2023-06-14T05:08:56;3.75;;;2.35;;
51724;SDS011;37801;53.224;6.552;2023-06-14T05:11:22;4.50;;;2.20;;
51724;SDS011;37801;53.224;6.552;2023-06-14T05:13:52;4.18;;;2.22;;
51724;SDS011;37801;53.224;6.552;2023-06-14T05:16:18;4.85;;;2.47;;
51724;SDS011;37801;53.224;6.552;2023-06-14T05:18:45;4.47;;;2.28;;
51724;SDS011;37801;53.224;6.552;2023-06-14T05:21:12;3.97;;;2.25;;
51724;SDS011;37801;53.224;6.552;2023-06-14T05:23:43;5.68;;;2.70;;
51724;SDS011;37801;53.224;6.552;2023-06-14T05:26:10;5.25;;;2.30;;
51724;SDS011;37801;53.224;6.552;2023-06-14T05:28:36;3.63;;;2.30;;
51724;SDS011;37801;53.224;6.552;2023-06-14T05:31:02;4.68;;;2.53;;
51724;SDS011;37801;53.224;6.552;2023-06-14T05:33:28;6.57;;;2.63;;
51724;SDS011;37801;53.224;6.552;2023-06-14T05:35:55;3.70;;;2.20;;
51724;SDS011;37801;53.224;6.552;2023-06-14T05:38:21;4.78;;;2.33;;
51724;SDS011;37801;53.224;6.552;2023-06-14T05:40:47;4.68;;;2.60;;
51724;SDS011;37801;53.224;6.552;2023-06-14T05:43:13;3.75;;;2.30;;
51724;SDS011;37801;53.224;6.552;2023-06-14T05:45:39;6.18;;;2.80;;
51724;SDS011;37801;53.224;6.552;2023-06-14T05:48:05;11.63;;;2.78;;
51724;SDS011;37801;53.224;6.552;2023-06-14T05:50:32;3.92;;;2.35;;
51724;SDS011;37801;53.224;6.552;2023-06-14T05:52:58;5.78;;;2.60;;
51724;SDS011;37801;53.224;6.552;2023-06-14T05:55:24;4.07;;;2.45;;
51724;SDS011;37801;53.224;6.552;2023-06-14T05:57:51;5.55;;;2.90;;
51724;SDS011;37801;53.224;6.552;2023-06-14T06:00:17;5.55;;;2.55;;
51724;SDS011;37801;53.224;6.552;2023-06-14T06:02:45;4.90;;;2.78;;
51724;SDS011;37801;53.224;6.552;2023-06-14T06:05:12;7.75;;;2.90;;
51724;SDS011;37801;53.224;6.552;2023-06-14T06:07:40;6.05;;;2.67;;
51724;SDS011;37801;53.224;6.552;2023-06-14T06:10:09;6.95;;;2.88;;
51724;SDS011;37801;53.224;6.552;2023-06-14T06:12:36;6.38;;;2.70;;
51724;SDS011;37801;53.224;6.552;2023-06-14T06:15:02;6.60;;;2.45;;
51724;SDS011;37801;53.224;6.552;2023-06-14T06:17:28;6.10;;;2.75;;
51724;SDS011;37801;53.224;6.552;2023-06-14T06:19:55;4.75;;;2.67;;
51724;SDS011;37801;53.224;6.552;2023-06-14T06:22:21;5.10;;;2.80;;
51724;SDS011;37801;53.224;6.552;2023-06-14T06:24:47;5.60;;;2.85;;
51724;SDS011;37801;53.224;6.552;2023-06-14T06:27:13;6.07;;;2.90;;
51724;SDS011;37801;53.224;6.552;2023-06-14T06:29:41;5.38;;;2.50;;
51724;SDS011;37801;53.224;6.552;2023-06-14T06:32:08;4.65;;;2.80;;
51724;SDS011;37801;53.224;6.552;2023-06-14T06:34:35;6.22;;;2.67;;
51724;SDS011;37801;53.224;6.552;2023-06-14T06:37:02;5.82;;;2.35;;
51724;SDS011;37801;53.224;6.552;2023-06-14T06:39:28;3.80;;;2.50;;
51724;SDS011;37801;53.224;6.552;2023-06-14T06:41:54;4.55;;;2.50;;
51724;SDS011;37801;53.224;6.552;2023-06-14T06:44:20;4.28;;;2.42;;
51724;SDS011;37801;53.224;6.552;2023-06-14T06:46:46;5.78;;;2.33;;
51724;SDS011;37801;53.224;6.552;2023-06-14T06:49:13;4.65;;;2.35;;
51724;SDS011;37801;53.224;6.552;2023-06-14T06:51:42;3.58;;;2.38;;
51724;SDS011;37801;53.224;6.552;2023-06-14T06:54:09;3.63;;;2.28;;
51724;SDS011;37801;53.224;6.552;2023-06-14T06:56:35;7.43;;;2.15;;
51724;SDS011;37801;53.224;6.552;2023-06-14T06:59:01;4.60;;;2.20;;
51724;SDS011;37801;53.224;6.552;2023-06-14T07:01:28;6.00;;;2.22;;
51724;SDS011;37801;53.224;6.552;2023-06-14T07:03:54;5.43;;;2.10;;
51724;SDS011;37801;53.224;6.552;2023-06-14T07:06:21;5.95;;;2.45;;
51724;SDS011;37801;53.224;6.552;2023-06-14T07:08:47;5.43;;;2.22;;
51724;SDS011;37801;53.224;6.552;2023-06-14T07:11:13;4.47;;;2.20;;
51724;SDS011;37801;53.224;6.552;2023-06-14T07:13:40;7.30;;;2.58;;
51724;SDS011;37801;53.224;6.552;2023-06-14T07:16:06;7.93;;;2.30;;
51724;SDS011;37801;53.224;6.552;2023-06-14T07:18:32;3.83;;;2.05;;
51724;SDS011;37801;53.224;6.552;2023-06-14T07:20:58;4.13;;;2.53;;
51724;SDS011;37801;53.224;6.552;2023-06-14T07:23:25;7.18;;;2.72;;
51724;SDS011;37801;53.224;6.552;2023-06-14T07:25:51;6.68;;;2.17;;
51724;SDS011;37801;53.224;6.552;2023-06-14T07:28:17;6.90;;;2.20;;
51724;SDS011;37801;53.224;6.552;2023-06-14T07:30:43;6.75;;;2.45;;
51724;SDS011;37801;53.224;6.552;2023-06-14T07:33:10;3.60;;;2.10;;
51724;SDS011;37801;53.224;6.552;2023-06-14T07:35:37;4.85;;;2.00;;
51724;SDS011;37801;53.224;6.552;2023-06-14T07:38:03;3.65;;;1.80;;
51724;SDS011;37801;53.224;6.552;2023-06-14T07:40:29;2.97;;;1.77;;
51724;SDS011;37801;53.224;6.552;2023-06-14T07:42:55;5.43;;;2.40;;
51724;SDS011;37801;53.224;6.552;2023-06-14T07:45:22;3.58;;;1.70;;
51724;SDS011;37801;53.224;6.552;2023-06-14T07:47:48;4.85;;;2.28;;
51724;SDS011;37801;53.224;6.552;2023-06-14T07:50:15;3.25;;;1.80;;
51724;SDS011;37801;53.224;6.552;2023-06-14T07:52:41;6.10;;;2.10;;
51724;SDS011;37801;53.224;6.552;2023-06-14T07:55:07;3.08;;;1.85;;
51724;SDS011;37801;53.224;6.552;2023-06-14T07:57:33;3.65;;;1.90;;
51724;SDS011;37801;53.224;6.552;2023-06-14T08:00:00;6.13;;;1.90;;
51724;SDS011;37801;53.224;6.552;2023-06-14T08:02:26;4.05;;;1.75;;
51724;SDS011;37801;53.224;6.552;2023-06-14T08:04:52;5.03;;;2.10;;
51724;SDS011;37801;53.224;6.552;2023-06-14T08:07:19;6.03;;;2.03;;
51724;SDS011;37801;53.224;6.552;2023-06-14T08:09:45;4.22;;;2.00;;
51724;SDS011;37801;53.224;6.552;2023-06-14T08:12:11;5.65;;;2.45;;
51724;SDS011;37801;53.224;6.552;2023-06-14T08:14:39;3.33;;;1.90;;
51724;SDS011;37801;53.224;6.552;2023-06-14T08:17:05;3.38;;;1.88;;
51724;SDS011;37801;53.224;6.552;2023-06-14T08:19:31;6.10;;;2.30;;
51724;SDS011;37801;53.224;6.552;2023-06-14T08:21:57;4.20;;;2.00;;
51724;SDS011;37801;53.224;6.552;2023-06-14T08:24:23;5.03;;;2.10;;
51724;SDS011;37801;53.224;6.552;2023-06-14T08:26:50;4.25;;;1.83;;
51724;SDS011;37801;53.224;6.552;2023-06-14T08:29:16;6.65;;;2.10;;
51724;SDS011;37801;53.224;6.552;2023-06-14T08:31:42;6.78;;;2.13;;
51724;SDS011;37801;53.224;6.552;2023-06-14T08:34:09;4.63;;;1.90;;
51724;SDS011;37801;53.224;6.552;2023-06-14T08:36:35;3.35;;;2.10;;
51724;SDS011;37801;53.224;6.552;2023-06-14T08:39:01;6.55;;;1.80;;
51724;SDS011;37801;53.224;6.552;2023-06-14T08:41:28;3.83;;;2.10;;
51724;SDS011;37801;53.224;6.552;2023-06-14T08:43:55;3.63;;;1.90;;
51724;SDS011;37801;53.224;6.552;2023-06-14T08:46:21;2.88;;;1.67;;
51724;SDS011;37801;53.224;6.552;2023-06-14T08:48:51;4.70;;;1.67;;
51724;SDS011;37801;53.224;6.552;2023-06-14T08:51:18;4.03;;;1.75;;
51724;SDS011;37801;53.224;6.552;2023-06-14T08:53:47;5.15;;;1.85;;
51724;SDS011;37801;53.224;6.552;2023-06-14T08:56:16;4.10;;;1.90;;
51724;SDS011;37801;53.224;6.552;2023-06-14T08:58:42;6.03;;;1.98;;
51724;SDS011;37801;53.224;6.552;2023-06-14T09:01:10;4.35;;;1.95;;
51724;SDS011;37801;53.224;6.552;2023-06-14T09:03:41;5.13;;;1.88;;
51724;SDS011;37801;53.224;6.552;2023-06-14T09:06:08;4.28;;;2.15;;
51724;SDS011;37801;53.224;6.552;2023-06-14T09:08:47;3.83;;;1.98;;
51724;SDS011;37801;53.224;6.552;2023-06-14T09:11:14;8.07;;;2.00;;
51724;SDS011;37801;53.224;6.552;2023-06-14T09:13:41;6.35;;;2.08;;
51724;SDS011;37801;53.224;6.552;2023-06-14T09:16:08;6.80;;;2.10;;
51724;SDS011;37801;53.224;6.552;2023-06-14T09:18:38;16.02;;;1.95;;
51724;SDS011;37801;53.224;6.552;2023-06-14T09:21:07;7.03;;;2.05;;
51724;SDS011;37801;53.224;6.552;2023-06-14T09:23:37;4.47;;;1.60;;
51724;SDS011;37801;53.224;6.552;2023-06-14T09:26:11;3.75;;;2.00;;
51724;SDS011;37801;53.224;6.552;2023-06-14T09:28:55;5.13;;;1.85;;
51724;SDS011;37801;53.224;6.552;2023-06-14T09:31:21;4.03;;;1.83;;
51724;SDS011;37801;53.224;6.552;2023-06-14T09:33:48;4.65;;;2.17;;
51724;SDS011;37801;53.224;6.552;2023-06-14T09:36:15;5.97;;;2.00;;
51724;SDS011;37801;53.224;6.552;2023-06-14T09:38:42;5.35;;;2.20;;
51724;SDS011;37801;53.224;6.552;2023-06-14T09:41:17;3.72;;;1.83;;
51724;SDS011;37801;53.224;6.552;2023-06-14T09:43:43;6.03;;;1.95;;
51724;SDS011;37801;53.224;6.552;2023-06-14T09:46:10;3.40;;;1.88;;
51724;SDS011;37801;53.224;6.552;2023-06-14T09:48:36;2.47;;;1.83;;
51724;SDS011;37801;53.224;6.552;2023-06-14T09:51:07;4.72;;;2.10;;
51724;SDS011;37801;53.224;6.552;2023-06-14T09:53:35;3.80;;;1.95;;
51724;SDS011;37801;53.224;6.552;2023-06-14T09:56:02;4.25;;;1.73;;
51724;SDS011;37801;53.224;6.552;2023-06-14T09:58:31;3.80;;;1.75;;
51724;SDS011;37801;53.224;6.552;2023-06-14T10:00:58;4.93;;;1.83;;
51724;SDS011;37801;53.224;6.552;2023-06-14T10:03:29;6.68;;;2.00;;
51724;SDS011;37801;53.224;6.552;2023-06-14T10:05:58;4.07;;;1.75;;
51724;SDS011;37801;53.224;6.552;2023-06-14T10:08:27;4.65;;;2.35;;
51724;SDS011;37801;53.224;6.552;2023-06-14T10:10:55;4.22;;;1.77;;
51724;SDS011;37801;53.224;6.552;2023-06-14T10:13:21;3.28;;;1.63;;
51724;SDS011;37801;53.224;6.552;2023-06-14T10:18:39;2.97;;;1.70;;
51724;SDS011;37801;53.224;6.552;2023-06-14T10:21:14;3.92;;;1.90;;
51724;SDS011;37801;53.224;6.552;2023-06-14T10:23:42;2.83;;;1.63;;
51724;SDS011;37801;53.224;6.552;2023-06-14T10:26:17;3.05;;;1.77;;
51724;SDS011;37801;53.224;6.552;2023-06-14T10:28:55;4.95;;;2.08;;
51724;SDS011;37801;53.224;6.552;2023-06-14T10:31:22;6.95;;;1.77;;
51724;SDS011;37801;53.224;6.552;2023-06-14T10:33:49;4.05;;;1.80;;
51724;SDS011;37801;53.224;6.552;2023-06-14T10:39:01;3.93;;;1.97;;
51724;SDS011;37801;53.224;6.552;2023-06-14T10:41:30;6.10;;;1.90;;
51724;SDS011;37801;53.224;6.552;2023-06-14T10:46:45;6.35;;;1.90;;
51724;SDS011;37801;53.224;6.552;2023-06-14T10:49:12;4.93;;;1.92;;
51724;SDS011;37801;53.224;6.552;2023-06-14T10:51:39;3.22;;;1.80;;
51724;SDS011;37801;53.224;6.552;2023-06-14T10:54:14;4.00;;;1.80;;
51724;SDS011;37801;53.224;6.552;2023-06-14T10:56:50;4.95;;;1.70;;
51724;SDS011;37801;53.224;6.552;2023-06-14T10:59:17;3.72;;;1.90;;
51724;SDS011;37801;53.224;6.552;2023-06-14T11:04:10;7.07;;;2.10;;
51724;SDS011;37801;53.224;6.552;2023-06-14T11:06:47;5.53;;;1.70;;
51724;SDS011;37801;53.224;6.552;2023-06-14T11:12:01;2.80;;;1.60;;
51724;SDS011;37801;53.224;6.552;2023-06-14T11:14:31;4.18;;;1.67;;
51724;SDS011;37801;53.224;6.552;2023-06-14T11:16:57;3.63;;;1.65;;
51724;SDS011;37801;53.224;6.552;2023-06-14T11:19:23;4.32;;;1.90;;
51724;SDS011;37801;53.224;6.552;2023-06-14T11:21:51;3.78;;;1.63;;
51724;SDS011;37801;53.224;6.552;2023-06-14T11:24:17;6.15;;;2.45;;
51724;SDS011;37801;53.224;6.552;2023-06-14T11:26:44;3.80;;;2.30;;
51724;SDS011;37801;53.224;6.552;2023-06-14T11:29:10;4.32;;;2.08;;
51724;SDS011;37801;53.224;6.552;2023-06-14T11:31:36;4.43;;;2.45;;
51724;SDS011;37801;53.224;6.552;2023-06-14T11:34:02;2.60;;;1.67;;
51724;SDS011;37801;53.224;6.552;2023-06-14T11:36:30;3.78;;;1.75;;
51724;SDS011;37801;53.224;6.552;2023-06-14T11:39:00;3.50;;;1.85;;
51724;SDS011;37801;53.224;6.552;2023-06-14T11:41:35;4.10;;;1.55;;
51724;SDS011;37801;53.224;6.552;2023-06-14T11:44:02;5.53;;;1.85;;
51724;SDS011;37801;53.224;6.552;2023-06-14T11:46:28;5.00;;;1.55;;
51724;SDS011;37801;53.224;6.552;2023-06-14T11:48:54;3.63;;;1.60;;
51724;SDS011;37801;53.224;6.552;2023-06-14T11:51:21;2.60;;;1.30;;
51724;SDS011;37801;53.224;6.552;2023-06-14T11:53:47;1.85;;;1.15;;
51724;SDS011;37801;53.224;6.552;2023-06-14T11:56:13;5.75;;;1.33;;
51724;SDS011;37801;53.224;6.552;2023-06-14T11:58:42;4.72;;;1.38;;
51724;SDS011;37801;53.224;6.552;2023-06-14T12:01:08;5.10;;;1.48;;
51724;SDS011;37801;53.224;6.552;2023-06-14T12:03:35;2.38;;;1.60;;
51724;SDS011;37801;53.224;6.552;2023-06-14T12:06:01;3.38;;;1.42;;
51724;SDS011;37801;53.224;6.552;2023-06-14T12:08:34;5.18;;;1.88;;
51724;SDS011;37801;53.224;6.552;2023-06-14T12:11:04;3.90;;;1.27;;
51724;SDS011;37801;53.224;6.552;2023-06-14T12:13:31;4.68;;;1.17;;
51724;SDS011;37801;53.224;6.552;2023-06-14T12:15:57;4.20;;;1.48;;
51724;SDS011;37801;53.224;6.552;2023-06-14T12:18:33;3.30;;;1.40;;
51724;SDS011;37801;53.224;6.552;2023-06-14T12:21:00;5.28;;;1.20;;
51724;SDS011;37801;53.224;6.552;2023-06-14T12:23:47;5.43;;;1.20;;
51724;SDS011;37801;53.224;6.552;2023-06-14T12:26:14;1.92;;;1.30;;
51724;SDS011;37801;53.224;6.552;2023-06-14T12:28:41;6.47;;;1.55;;
51724;SDS011;37801;53.224;6.552;2023-06-14T12:31:08;3.38;;;1.33;;
51724;SDS011;37801;53.224;6.552;2023-06-14T12:33:34;3.67;;;1.25;;
51724;SDS011;37801;53.224;6.552;2023-06-14T12:36:02;2.15;;;1.35;;
51724;SDS011;37801;53.224;6.552;2023-06-14T12:38:29;3.03;;;1.50;;
51724;SDS011;37801;53.224;6.552;2023-06-14T12:40:55;2.83;;;1.50;;
51724;SDS011;37801;53.224;6.552;2023-06-14T12:43:22;3.95;;;1.50;;
51724;SDS011;37801;53.224;6.552;2023-06-14T12:45:48;2.15;;;1.30;;
51724;SDS011;37801;53.224;6.552;2023-06-14T12:48:14;4.93;;;1.42;;
51724;SDS011;37801;53.224;6.552;2023-06-14T12:50:41;2.67;;;1.30;;
51724;SDS011;37801;53.224;6.552;2023-06-14T12:53:07;6.57;;;1.42;;
51724;SDS011;37801;53.224;6.552;2023-06-14T12:55:34;2.83;;;1.40;;
51724;SDS011;37801;53.224;6.552;2023-06-14T12:58:00;3.70;;;1.40;;
51724;SDS011;37801;53.224;6.552;2023-06-14T13:00:26;2.05;;;1.30;;
51724;SDS011;37801;53.224;6.552;2023-06-14T13:02:52;5.43;;;1.30;;
51724;SDS011;37801;53.224;6.552;2023-06-14T13:05:19;3.08;;;1.50;;
51724;SDS011;37801;53.224;6.552;2023-06-14T13:07:45;1.85;;;1.25;;
51724;SDS011;37801;53.224;6.552;2023-06-14T13:10:11;4.60;;;1.50;;
51724;SDS011;37801;53.224;6.552;2023-06-14T13:12:37;2.60;;;1.30;;
51724;SDS011;37801;53.224;6.552;2023-06-14T13:15:04;2.58;;;1.27;;
51724;SDS011;37801;53.224;6.552;2023-06-14T13:17:30;4.05;;;1.30;;
51724;SDS011;37801;53.224;6.552;2023-06-14T13:19:58;3.00;;;1.30;;
51724;SDS011;37801;53.224;6.552;2023-06-14T13:22:24;2.92;;;1.40;;
51724;SDS011;37801;53.224;6.552;2023-06-14T13:24:51;2.53;;;1.50;;
51724;SDS011;37801;53.224;6.552;2023-06-14T13:27:17;2.53;;;1.40;;
51724;SDS011;37801;53.224;6.552;2023-06-14T13:29:43;4.35;;;1.70;;
51724;SDS011;37801;53.224;6.552;2023-06-14T13:32:09;6.22;;;1.40;;
51724;SDS011;37801;53.224;6.552;2023-06-14T13:34:35;2.85;;;1.50;;
51724;SDS011;37801;53.224;6.552;2023-06-14T13:37:01;2.15;;;1.40;;
51724;SDS011;37801;53.224;6.552;2023-06-14T13:39:27;3.35;;;1.30;;
51724;SDS011;37801;53.224;6.552;2023-06-14T13:41:54;2.47;;;1.35;;
51724;SDS011;37801;53.224;6.552;2023-06-14T13:44:20;4.28;;;1.48;;
51724;SDS011;37801;53.224;6.552;2023-06-14T13:46:46;3.60;;;1.40;;
51724;SDS011;37801;53.224;6.552;2023-06-14T13:49:12;5.63;;;1.50;;
51724;SDS011;37801;53.224;6.552;2023-06-14T13:51:39;3.72;;;1.45;;
51724;SDS011;37801;53.224;6.552;2023-06-14T13:54:05;6.07;;;1.73;;
51724;SDS011;37801;53.224;6.552;2023-06-14T13:56:31;2.40;;;1.40;;
51724;SDS011;37801;53.224;6.552;2023-06-14T13:58:57;3.88;;;1.30;;
51724;SDS011;37801;53.224;6.552;2023-06-14T14:01:25;2.80;;;1.50;;
51724;SDS011;37801;53.224;6.552;2023-06-14T14:03:51;2.58;;;1.42;;
51724;SDS011;37801;53.224;6.552;2023-06-14T14:06:17;3.08;;;1.60;;
51724;SDS011;37801;53.224;6.552;2023-06-14T14:08:44;6.57;;;1.50;;
51724;SDS011;37801;53.224;6.552;2023-06-14T14:11:10;3.08;;;1.40;;
51724;SDS011;37801;53.224;6.552;2023-06-14T14:13:37;2.55;;;1.33;;
51724;SDS011;37801;53.224;6.552;2023-06-14T14:16:04;7.35;;;1.40;;
51724;SDS011;37801;53.224;6.552;2023-06-14T14:18:31;2.67;;;1.40;;
51724;SDS011;37801;53.224;6.552;2023-06-14T14:20:57;3.67;;;1.40;;
51724;SDS011;37801;53.224;6.552;2023-06-14T14:23:25;3.13;;;1.45;;
51724;SDS011;37801;53.224;6.552;2023-06-14T14:25:52;4.65;;;1.40;;
51724;SDS011;37801;53.224;6.552;2023-06-14T14:28:18;6.22;;;1.63;;
51724;SDS011;37801;53.224;6.552;2023-06-14T14:30:45;3.17;;;1.40;;
51724;SDS011;37801;53.224;6.552;2023-06-14T14:33:12;3.70;;;1.85;;
51724;SDS011;37801;53.224;6.552;2023-06-14T14:35:47;3.05;;;1.58;;
51724;SDS011;37801;53.224;6.552;2023-06-14T14:38:13;4.35;;;1.65;;
51724;SDS011;37801;53.224;6.552;2023-06-14T14:40:41;4.38;;;1.73;;
51724;SDS011;37801;53.224;6.552;2023-06-14T14:43:07;4.07;;;1.70;;
51724;SDS011;37801;53.224;6.552;2023-06-14T14:45:33;2.35;;;1.50;;
51724;SDS011;37801;53.224;6.552;2023-06-14T14:48:00;4.80;;;1.50;;
51724;SDS011;37801;53.224;6.552;2023-06-14T14:50:27;2.80;;;1.70;;
51724;SDS011;37801;53.224;6.552;2023-06-14T14:52:53;2.90;;;1.40;;
51724;SDS011;37801;53.224;6.552;2023-06-14T14:55:19;5.40;;;1.63;;
51724;SDS011;37801;53.224;6.552;2023-06-14T14:57:46;4.55;;;1.52;;
51724;SDS011;37801;53.224;6.552;2023-06-14T15:00:13;4.30;;;1.60;;
51724;SDS011;37801;53.224;6.552;2023-06-14T15:02:39;4.60;;;1.65;;
51724;SDS011;37801;53.224;6.552;2023-06-14T15:05:05;2.33;;;1.38;;